Time;durP1;ratioP1;P1;durP2;ratioP2;P2;SDS_P1;SDS_P2;PMS_P1;PMS_P2;Temp;Humidity;BMP_temperature;BMP_pressure;BME280_temperature;BME280_humidity;BME280_pressure;Samples;Min_cycle;Max_cycle;Signal;HPM_P1;HPM_P2
2022/04/21 00:00:34;;;;;;;;;25.00;19.67;;;;;;;;5054216;28;45811;-84
2022/04/21 00:03:00;;;;;;;;;22.00;16.67;;;;;;;;5041169;28;45503;-81
2022/04/21 00:05:25;;;;;;;;;21.00;16.33;;;;;;;;5024518;28;45503;-84
2022/04/21 00:07:51;;;;;;;;;17.67;16.00;;;;;;;;5022682;28;44979;-84
2022/04/21 00:10:18;;;;;;;;;15.67;13.33;;;;;;;;5022704;28;45369;-84
2022/04/21 00:12:44;;;;;;;;;18.33;15.67;;;;;;;;5022711;28;45869;-84
2022/04/21 00:15:10;;;;;;;;;18.33;16.67;;;;;;;;5023280;28;45787;-86
2022/04/21 00:17:36;;;;;;;;;14.00;12.00;;;;;;;;5024714;28;45401;-86
2022/04/21 00:20:01;;;;;;;;;17.67;13.67;;;;;;;;5024630;28;45332;-87
2022/04/21 00:25:11;;;;;;;;;15.67;15.00;;;;;;;;5024779;28;45741;-84
2022/04/21 00:27:43;;;;;;;;;22.00;16.00;;;;;;;;5005114;28;45511;-86
2022/04/21 00:30:13;;;;;;;;;15.67;13.00;;;;;;;;5005289;28;45935;-82
2022/04/21 00:32:39;;;;;;;;;17.67;15.67;;;;;;;;5022889;28;45664;-85
2022/04/21 00:35:07;;;;;;;;;17.67;16.00;;;;;;;;5006703;28;47006;-85
2022/04/21 00:37:33;;;;;;;;;21.33;16.67;;;;;;;;5023462;28;45204;-86
2022/04/21 00:40:00;;;;;;;;;15.67;14.33;;;;;;;;5023273;28;45419;-86
2022/04/21 00:42:26;;;;;;;;;18.00;17.33;;;;;;;;5010388;28;46101;-86
2022/04/21 00:44:52;;;;;;;;;14.33;14.33;;;;;;;;5042144;28;45847;-86
2022/04/21 00:47:18;;;;;;;;;16.00;15.00;;;;;;;;5057978;28;45378;-87
2022/04/21 00:49:47;;;;;;;;;15.00;13.67;;;;;;;;5030774;28;45483;-85
2022/04/21 00:52:14;;;;;;;;;15.33;14.33;;;;;;;;5024255;28;45996;-83
2022/04/21 00:54:44;;;;;;;;;13.33;12.33;;;;;;;;5041630;28;45541;-85
2022/04/21 00:57:10;;;;;;;;;14.33;11.00;;;;;;;;5042002;28;45730;-85
2022/04/21 00:59:36;;;;;;;;;14.00;11.33;;;;;;;;5024750;28;45383;-85
2022/04/21 01:04:46;;;;;;;;;17.33;14.67;;;;;;;;5024396;28;45751;-87
2022/04/21 01:07:11;;;;;;;;;16.67;12.33;;;;;;;;5022554;28;45744;-84
2022/04/21 01:09:38;;;;;;;;;13.67;12.00;;;;;;;;5022018;28;45540;-85
2022/04/21 01:12:14;;;;;;;;;12.33;10.00;;;;;;;;5032368;28;45353;-84
2022/04/21 01:14:39;;;;;;;;;10.67;9.67;;;;;;;;5042948;28;45392;-85
2022/04/21 01:17:09;;;;;;;;;15.67;14.67;;;;;;;;5024885;28;45394;-84
2022/04/21 01:19:36;;;;;;;;;14.33;12.33;;;;;;;;5044894;28;44845;-85
2022/04/21 01:22:02;;;;;;;;;14.67;12.33;;;;;;;;5042163;28;45853;-85
2022/04/21 01:24:27;;;;;;;;;13.00;11.67;;;;;;;;5045966;28;45613;-85
2022/04/21 01:26:54;;;;;;;;;12.00;11.00;;;;;;;;5042353;28;45364;-86
2022/04/21 01:29:20;;;;;;;;;14.67;11.33;;;;;;;;5045362;28;45771;-87
2022/04/21 01:31:46;;;;;;;;;7.33;7.00;;;;;;;;5044865;28;45462;-87
2022/04/21 01:34:12;;;;;;;;;12.00;11.33;;;;;;;;5036930;28;47566;-83
2022/04/21 01:41:08;;;;;;;;;9.33;9.33;;;;;;;;5023667;28;45927;-84
2022/04/21 01:42:13;;;;;;;;;11.00;10.00;;;;;;;;5020659;28;45725;-84
2022/04/21 01:44:40;;;;;;;;;11.33;10.33;;;;;;;;5040421;28;45577;-83
2022/04/21 01:47:05;;;;;;;;;13.67;11.67;;;;;;;;5060223;28;45812;-84
2022/04/21 01:49:32;;;;;;;;;11.67;11.00;;;;;;;;5042036;28;45573;-84
2022/04/21 01:51:57;;;;;;;;;8.67;7.00;;;;;;;;5022048;28;45794;-82
2022/04/21 01:54:23;;;;;;;;;14.00;11.33;;;;;;;;5022240;28;45597;-84
2022/04/21 01:56:49;;;;;;;;;13.00;10.67;;;;;;;;5046885;28;45350;-85
2022/04/21 01:59:16;;;;;;;;;14.33;12.00;;;;;;;;5062661;28;45359;-84
2022/04/21 02:01:41;;;;;;;;;11.67;9.67;;;;;;;;5063151;28;45843;-86
2022/04/21 02:04:06;;;;;;;;;10.67;10.33;;;;;;;;5078089;28;47483;-86
2022/04/21 02:06:32;;;;;;;;;18.33;13.00;;;;;;;;5060815;28;45513;-85
2022/04/21 02:08:58;;;;;;;;;13.33;11.33;;;;;;;;5061974;28;45672;-87
2022/04/21 02:11:24;;;;;;;;;9.33;9.33;;;;;;;;5063949;28;45549;-87
2022/04/21 02:13:49;;;;;;;;;13.00;10.67;;;;;;;;5042029;28;45496;-86
2022/04/21 02:16:14;;;;;;;;;13.00;10.67;;;;;;;;5025562;28;45628;-86
2022/04/21 02:18:40;;;;;;;;;11.33;9.00;;;;;;;;5044511;28;45419;-86
2022/04/21 02:21:05;;;;;;;;;8.67;8.67;;;;;;;;5043242;28;45569;-86
2022/04/21 02:23:31;;;;;;;;;9.67;9.67;;;;;;;;5026139;28;46939;-82
2022/04/21 02:25:57;;;;;;;;;5.67;5.67;;;;;;;;5041941;28;45344;-87
2022/04/21 02:28:25;;;;;;;;;9.33;8.33;;;;;;;;5025120;28;45263;-87
2022/04/21 02:30:50;;;;;;;;;8.00;8.00;;;;;;;;5044911;28;45746;-87
2022/04/21 02:33:15;;;;;;;;;7.33;7.33;;;;;;;;5043462;28;46869;-87
2022/04/21 02:35:41;;;;;;;;;6.67;6.67;;;;;;;;5047055;28;45280;-85
2022/04/21 02:38:06;;;;;;;;;7.67;7.33;;;;;;;;5044719;28;45315;-86
2022/04/21 02:40:33;;;;;;;;;8.67;7.67;;;;;;;;5055832;28;46470;-86
2022/04/21 02:42:58;;;;;;;;;6.67;6.67;;;;;;;;5023157;28;46294;-86
2022/04/21 02:45:26;;;;;;;;;8.33;8.00;;;;;;;;5023256;28;45380;-84
2022/04/21 02:47:52;;;;;;;;;9.67;9.67;;;;;;;;5022503;28;45520;-85
2022/04/21 02:50:18;;;;;;;;;6.67;5.67;;;;;;;;5025104;28;45558;-88
2022/04/21 02:52:43;;;;;;;;;11.67;7.67;;;;;;;;5024942;28;47368;-87
2022/04/21 02:57:55;;;;;;;;;8.00;7.00;;;;;;;;5044428;28;45507;-87
2022/04/21 03:00:21;;;;;;;;;7.33;7.33;;;;;;;;5028338;28;46350;-87
2022/04/21 03:02:46;;;;;;;;;8.67;8.67;;;;;;;;5031115;28;47266;-87
2022/04/21 03:05:12;;;;;;;;;10.00;8.00;;;;;;;;5029202;28;45797;-88
2022/04/21 03:07:38;;;;;;;;;8.00;8.00;;;;;;;;5046703;28;45459;-86
2022/04/21 03:10:07;;;;;;;;;10.00;8.00;;;;;;;;5027295;28;45668;-86
2022/04/21 03:12:34;;;;;;;;;10.67;8.67;;;;;;;;5049328;28;45395;-84
2022/04/21 03:15:01;;;;;;;;;7.67;7.00;;;;;;;;5043418;28;45552;-83
2022/04/21 03:17:29;;;;;;;;;10.33;9.33;;;;;;;;5024392;28;45433;-84
2022/04/21 03:19:54;;;;;;;;;9.67;9.00;;;;;;;;5024241;28;45339;-83
2022/04/21 03:25:04;;;;;;;;;8.33;8.33;;;;;;;;5044409;28;45783;-85
2022/04/21 03:27:30;;;;;;;;;9.33;9.00;;;;;;;;5047340;28;45461;-85
2022/04/21 03:29:59;;;;;;;;;7.33;6.33;;;;;;;;5026452;28;45447;-88
2022/04/21 03:32:25;;;;;;;;;10.67;10.67;;;;;;;;5061641;28;47150;-84
2022/04/21 03:34:51;;;;;;;;;8.00;8.00;;;;;;;;5026072;28;45393;-85
2022/04/21 03:37:27;;;;;;;;;8.33;8.33;;;;;;;;5044218;28;45483;-86
2022/04/21 03:39:53;;;;;;;;;9.00;8.67;;;;;;;;5025936;28;46167;-84
2022/04/21 03:42:20;;;;;;;;;10.00;9.67;;;;;;;;5044744;28;45653;-84
2022/04/21 03:44:47;;;;;;;;;9.67;9.00;;;;;;;;5056605;28;45681;-84
2022/04/21 03:47:14;;;;;;;;;11.00;11.00;;;;;;;;5021669;28;45581;-84
2022/04/21 03:49:42;;;;;;;;;11.33;10.33;;;;;;;;5023178;28;45750;-85
2022/04/21 03:52:11;;;;;;;;;12.33;10.00;;;;;;;;5023146;28;45714;-84
2022/04/21 03:54:37;;;;;;;;;9.67;8.33;;;;;;;;5023832;28;45351;-85
2022/04/21 03:57:09;;;;;;;;;13.00;9.67;;;;;;;;5024549;28;45853;-85
2022/04/21 03:59:35;;;;;;;;;12.67;10.00;;;;;;;;5027936;28;45243;-85
2022/04/21 04:02:03;;;;;;;;;9.67;9.67;;;;;;;;5039983;28;46275;-86
2022/04/21 04:04:30;;;;;;;;;14.00;10.67;;;;;;;;5012627;28;45473;-86
2022/04/21 04:12:28;;;;;;;;;12.00;11.67;;;;;;;;5025971;28;45393;-87
2022/04/21 04:14:54;;;;;;;;;10.00;10.00;;;;;;;;5025387;28;45117;-87
2022/04/21 04:17:21;;;;;;;;;14.33;10.00;;;;;;;;5026801;28;45503;-86
2022/04/21 04:19:46;;;;;;;;;9.33;9.00;;;;;;;;5028479;28;45374;-85
2022/04/21 04:22:14;;;;;;;;;14.00;11.00;;;;;;;;5026936;28;45440;-86
2022/04/21 04:24:40;;;;;;;;;10.33;9.33;;;;;;;;5027290;28;45546;-86
2022/04/21 04:27:05;;;;;;;;;10.67;10.67;;;;;;;;5028013;28;44933;-88
2022/04/21 04:29:31;;;;;;;;;11.00;11.00;;;;;;;;5025064;28;45721;-85
2022/04/21 04:31:57;;;;;;;;;11.00;9.33;;;;;;;;5027673;28;45476;-85
2022/04/21 04:34:23;;;;;;;;;12.33;9.00;;;;;;;;5022554;28;45379;-82
2022/04/21 04:36:49;;;;;;;;;11.33;11.33;;;;;;;;5023096;28;45658;-84
2022/04/21 04:39:14;;;;;;;;;11.00;11.00;;;;;;;;5022143;28;45514;-83
2022/04/21 04:44:25;;;;;;;;;12.00;9.00;;;;;;;;5023683;28;45753;-87
2022/04/21 04:46:51;;;;;;;;;12.00;10.33;;;;;;;;5029748;28;45344;-85
2022/04/21 04:49:19;;;;;;;;;10.33;9.00;;;;;;;;5047034;28;44823;-88
2022/04/21 04:51:44;;;;;;;;;11.33;10.33;;;;;;;;5024491;28;47823;-87
2022/04/21 04:54:12;;;;;;;;;13.33;11.00;;;;;;;;5047282;28;44724;-86
2022/04/21 04:56:44;;;;;;;;;11.00;11.00;;;;;;;;5032821;28;45400;-86
2022/04/21 04:59:11;;;;;;;;;10.67;10.00;;;;;;;;5028349;28;45366;-86
2022/04/21 05:01:41;;;;;;;;;8.67;8.67;;;;;;;;5026722;28;45187;-86
2022/04/21 05:04:11;;;;;;;;;13.00;13.00;;;;;;;;5026808;28;45574;-85
2022/04/21 05:06:47;;;;;;;;;14.00;12.67;;;;;;;;5041705;28;45484;-87
2022/04/21 05:09:17;;;;;;;;;13.00;12.00;;;;;;;;5045589;28;45799;-86
2022/04/21 05:11:47;;;;;;;;;14.00;13.33;;;;;;;;5030510;28;46747;-88
2022/04/21 05:14:17;;;;;;;;;10.33;10.00;;;;;;;;5031013;28;45349;-87
2022/04/21 05:16:44;;;;;;;;;13.00;12.00;;;;;;;;5031143;28;45385;-87
2022/04/21 05:19:13;;;;;;;;;16.67;14.67;;;;;;;;5029697;28;45388;-87
2022/04/21 05:21:42;;;;;;;;;11.33;11.33;;;;;;;;5023275;28;46429;-88
2022/04/21 05:24:20;;;;;;;;;15.33;11.33;;;;;;;;5047099;28;45360;-87
2022/04/21 05:27:18;;;;;;;;;13.00;11.33;;;;;;;;5028893;28;45305;-87
2022/04/21 05:32:35;;;;;;;;;14.67;10.33;;;;;;;;5341557;22;47248;-76
2022/04/21 05:35:01;;;;;;;;;12.33;9.67;;;;;;;;4987523;27;45662;-74
2022/04/21 05:37:27;;;;;;;;;14.67;12.33;;;;;;;;4994804;27;45677;-76
2022/04/21 05:39:52;;;;;;;;;12.00;9.67;;;;;;;;4991672;27;45647;-74
2022/04/21 05:42:22;;;;;;;;;14.67;14.67;;;;;;;;4985397;28;45422;-74
2022/04/21 05:44:48;;;;;;;;;16.00;13.33;;;;;;;;4983724;28;45894;-75
2022/04/21 05:47:14;;;;;;;;;10.67;10.67;;;;;;;;5001554;28;44894;-81
2022/04/21 05:49:39;;;;;;;;;19.67;14.33;;;;;;;;5005181;28;44724;-82
2022/04/21 05:52:06;;;;;;;;;11.67;10.33;;;;;;;;5003477;28;46627;-78
2022/04/21 05:54:32;;;;;;;;;9.33;8.33;;;;;;;;4988083;28;45376;-79
2022/04/21 05:56:58;;;;;;;;;9.00;8.33;;;;;;;;4976461;28;45834;-76
2022/04/21 05:59:23;;;;;;;;;10.00;10.00;;;;;;;;4984388;28;45543;-76
2022/04/21 06:01:48;;;;;;;;;12.33;8.33;;;;;;;;4991304;28;46771;-76
2022/04/21 06:04:14;;;;;;;;;9.33;9.33;;;;;;;;4997143;28;45739;-78
2022/04/21 06:06:39;;;;;;;;;10.67;9.00;;;;;;;;5012328;27;45813;-80
2022/04/21 06:09:04;;;;;;;;;12.33;9.67;;;;;;;;5020338;27;45389;-77
2022/04/21 06:11:51;;;;;;;;;11.00;10.00;;;;;;;;4999743;28;47720;-79
2022/04/21 06:14:18;;;;;;;;;10.67;10.67;;;;;;;;5030796;27;45256;-78
2022/04/21 06:16:54;;;;;;;;;14.33;10.67;;;;;;;;5002004;28;45329;-79
2022/04/21 06:19:22;;;;;;;;;9.33;8.33;;;;;;;;5002012;28;45396;-79
2022/04/21 06:21:47;;;;;;;;;9.67;7.67;;;;;;;;5006604;28;45376;-78
2022/04/21 06:24:12;;;;;;;;;9.33;7.67;;;;;;;;5005718;28;45637;-80
2022/04/21 06:26:38;;;;;;;;;10.67;9.67;;;;;;;;5013033;28;45617;-80
2022/04/21 06:29:05;;;;;;;;;10.00;10.00;;;;;;;;5000745;28;44881;-79
2022/04/21 06:31:30;;;;;;;;;9.67;9.00;;;;;;;;4987945;28;45173;-79
2022/04/21 06:33:58;;;;;;;;;11.00;9.00;;;;;;;;4990502;28;45235;-79
2022/04/21 06:36:24;;;;;;;;;11.00;10.33;;;;;;;;5016677;28;45271;-75
2022/04/21 06:38:51;;;;;;;;;11.67;10.67;;;;;;;;4996773;28;45892;-77
2022/04/21 06:41:16;;;;;;;;;14.33;12.33;;;;;;;;5002780;28;47445;-76
2022/04/21 06:49:10;;;;;;;;;10.33;9.00;;;;;;;;5000271;27;45051;-76
2022/04/21 06:51:39;;;;;;;;;10.00;10.00;;;;;;;;5003277;28;45803;-81
2022/04/21 06:54:05;;;;;;;;;12.33;9.67;;;;;;;;5003428;28;44882;-83
2022/04/21 06:56:33;;;;;;;;;13.67;12.67;;;;;;;;5010332;28;45459;-83
2022/04/21 06:58:59;;;;;;;;;13.00;12.33;;;;;;;;5009953;28;45498;-84
2022/04/21 07:01:26;;;;;;;;;11.00;10.00;;;;;;;;5008093;28;45325;-83
2022/04/21 07:03:55;;;;;;;;;12.33;9.33;;;;;;;;4995298;28;45408;-80
2022/04/21 07:06:20;;;;;;;;;18.33;11.33;;;;;;;;5005654;27;46003;-80
2022/04/21 07:08:45;;;;;;;;;11.00;11.00;;;;;;;;5002151;28;45852;-80
2022/04/21 07:11:12;;;;;;;;;10.67;9.33;;;;;;;;4997518;27;45490;-83
2022/04/21 07:13:37;;;;;;;;;16.67;13.33;;;;;;;;5007083;28;45601;-80
2022/04/21 07:16:06;;;;;;;;;10.00;10.00;;;;;;;;5000532;28;45466;-82
2022/04/21 07:18:31;;;;;;;;;12.33;12.00;;;;;;;;5008176;28;44937;-82
2022/04/21 07:21:09;;;;;;;;;16.00;11.00;;;;;;;;5004361;28;45437;-82
2022/04/21 07:26:38;;;;;;;;;11.33;11.33;;;;;;;;5059056;22;45380;-75
2022/04/21 07:29:04;;;;;;;;;10.33;10.33;;;;;;;;5070465;27;45585;-77
2022/04/21 07:31:29;;;;;;;;;10.33;10.33;;;;;;;;5063639;28;45831;-77
2022/04/21 07:34:03;;;;;;;;;17.67;10.33;;;;;;;;5066119;28;45520;-76
2022/04/21 07:36:32;;;;;;;;;9.67;8.67;;;;;;;;5071053;28;45559;-77
2022/04/21 07:38:57;;;;;;;;;13.33;10.67;;;;;;;;5066902;27;45552;-74
2022/04/21 07:41:23;;;;;;;;;8.67;8.00;;;;;;;;5062805;27;46685;-75
2022/04/21 07:43:48;;;;;;;;;14.33;13.00;;;;;;;;5059710;27;45735;-79
2022/04/21 07:46:14;;;;;;;;;10.33;10.33;;;;;;;;5071808;28;45850;-76
2022/04/21 07:51:24;;;;;;;;;10.67;10.67;;;;;;;;5069689;28;45931;-80
2022/04/21 07:53:49;;;;;;;;;11.67;10.67;;;;;;;;5063589;28;45353;-79
2022/04/21 07:56:14;;;;;;;;;13.33;11.33;;;;;;;;5063510;28;45581;-76
2022/04/21 07:58:40;;;;;;;;;10.67;10.00;;;;;;;;5066163;28;45283;-77
2022/04/21 08:01:05;;;;;;;;;11.00;8.33;;;;;;;;5074830;28;47735;-73
2022/04/21 08:03:37;;;;;;;;;11.33;10.00;;;;;;;;5065318;28;45814;-72
2022/04/21 08:06:03;;;;;;;;;13.33;13.33;;;;;;;;5070933;28;45552;-70
2022/04/21 08:08:28;;;;;;;;;19.33;16.33;;;;;;;;5067825;28;45592;-72
2022/04/21 08:10:53;;;;;;;;;16.67;10.67;;;;;;;;5068593;28;45424;-74
2022/04/21 08:13:19;;;;;;;;;13.00;12.00;;;;;;;;5073293;28;45738;-77
2022/04/21 08:15:46;;;;;;;;;15.00;14.00;;;;;;;;5075577;27;45529;-76
2022/04/21 08:18:12;;;;;;;;;13.67;12.67;;;;;;;;5070941;27;45932;-73
2022/04/21 08:20:38;;;;;;;;;12.00;10.33;;;;;;;;5072585;28;46870;-75
2022/04/21 08:23:03;;;;;;;;;13.00;13.00;;;;;;;;5073345;27;45802;-72
2022/04/21 08:33:41;;;;;;;;;15.67;11.67;;;;;;;;5065379;27;45602;-66
2022/04/21 08:36:06;;;;;;;;;11.33;11.33;;;;;;;;5064903;27;47521;-67
2022/04/21 08:38:32;;;;;;;;;14.00;10.33;;;;;;;;5067343;27;45448;-68
2022/04/21 08:40:58;;;;;;;;;13.00;12.33;;;;;;;;5067962;27;45866;-69
2022/04/21 08:43:25;;;;;;;;;16.33;12.00;;;;;;;;5068549;27;45743;-68
2022/04/21 08:45:51;;;;;;;;;13.33;13.33;;;;;;;;5068552;27;45440;-67
2022/04/21 08:48:18;;;;;;;;;17.00;16.00;;;;;;;;5065484;27;45533;-72
2022/04/21 08:50:44;;;;;;;;;15.00;11.33;;;;;;;;5066118;27;45747;-68
2022/04/21 08:53:10;;;;;;;;;13.00;10.67;;;;;;;;5060590;28;45853;-69
2022/04/21 08:55:35;;;;;;;;;10.67;10.67;;;;;;;;5064208;28;45762;-72
2022/04/21 08:58:01;;;;;;;;;14.00;13.00;;;;;;;;5066511;28;45766;-72
2022/04/21 09:00:27;;;;;;;;;10.33;9.67;;;;;;;;5070856;28;46290;-73
2022/04/21 09:02:53;;;;;;;;;11.00;8.33;;;;;;;;5059094;28;45448;-71
2022/04/21 09:05:20;;;;;;;;;13.00;13.00;;;;;;;;5062710;28;46136;-71
2022/04/21 09:07:48;;;;;;;;;11.00;10.33;;;;;;;;5068988;28;45448;-78
2022/04/21 09:10:14;;;;;;;;;13.67;12.00;;;;;;;;5060209;28;46363;-73
2022/04/21 09:12:42;;;;;;;;;13.67;12.67;;;;;;;;5055541;28;45729;-73
2022/04/21 09:15:08;;;;;;;;;11.67;11.67;;;;;;;;5057881;28;45593;-72
2022/04/21 09:17:41;;;;;;;;;11.33;10.33;;;;;;;;5053656;28;45803;-72
2022/04/21 09:20:07;;;;;;;;;13.67;11.67;;;;;;;;5066060;28;48512;-70
2022/04/21 09:22:33;;;;;;;;;18.33;14.67;;;;;;;;5059474;27;45655;-70
2022/04/21 09:24:59;;;;;;;;;12.00;11.00;;;;;;;;5041337;28;45801;-72
2022/04/21 09:27:24;;;;;;;;;13.00;12.00;;;;;;;;5059082;28;45754;-74
2022/04/21 09:29:50;;;;;;;;;12.00;10.00;;;;;;;;5059197;27;46016;-70
2022/04/21 09:32:17;;;;;;;;;13.00;12.33;;;;;;;;5056164;28;45495;-70
2022/04/21 09:34:48;;;;;;;;;12.00;11.33;;;;;;;;5058522;27;45976;-70
2022/04/21 09:37:20;;;;;;;;;10.67;10.67;;;;;;;;5054666;28;45602;-70
2022/04/21 09:39:52;;;;;;;;;15.67;14.33;;;;;;;;5057617;28;46606;-69
2022/04/21 09:42:24;;;;;;;;;11.67;11.00;;;;;;;;5061750;27;45421;-70
2022/04/21 09:47:33;;;;;;;;;15.33;12.67;;;;;;;;5057982;27;45364;-70
2022/04/21 09:50:10;;;;;;;;;16.67;13.33;;;;;;;;5062556;28;45467;-71
2022/04/21 09:52:36;;;;;;;;;14.67;14.67;;;;;;;;5056953;28;45373;-71
2022/04/21 09:55:18;;;;;;;;;12.67;11.33;;;;;;;;5055524;28;45477;-72
2022/04/21 09:57:44;;;;;;;;;14.67;11.67;;;;;;;;5057647;28;45503;-70
2022/04/21 10:00:09;;;;;;;;;11.00;10.00;;;;;;;;5059574;27;45858;-71
2022/04/21 10:02:35;;;;;;;;;14.67;11.33;;;;;;;;5053190;28;45700;-70
2022/04/21 10:05:00;;;;;;;;;11.33;11.33;;;;;;;;5053957;27;45862;-72
2022/04/21 10:07:26;;;;;;;;;13.67;12.00;;;;;;;;5053155;27;45461;-71
2022/04/21 10:09:51;;;;;;;;;15.00;12.33;;;;;;;;5065831;27;45569;-70
2022/04/21 10:12:17;;;;;;;;;7.67;6.00;;;;;;;;5063121;27;45639;-72
2022/04/21 10:14:44;;;;;;;;;13.33;10.67;;;;;;;;5060200;27;45680;-69
2022/04/21 10:17:10;;;;;;;;;14.67;14.33;;;;;;;;5061081;28;45539;-71
2022/04/21 10:19:35;;;;;;;;;10.33;9.00;;;;;;;;5067026;27;46162;-69
2022/04/21 10:22:03;;;;;;;;;12.67;11.00;;;;;;;;5072838;27;45507;-68
2022/04/21 10:24:32;;;;;;;;;14.33;12.00;;;;;;;;5067768;27;45531;-71
2022/04/21 10:26:57;;;;;;;;;14.67;12.67;;;;;;;;5067394;27;45913;-72
2022/04/21 10:29:23;;;;;;;;;8.67;5.33;;;;;;;;5066454;27;45642;-70
2022/04/21 10:31:49;;;;;;;;;11.33;10.67;;;;;;;;5066660;28;45786;-71
2022/04/21 10:34:28;;;;;;;;;12.00;12.00;;;;;;;;5065144;27;45720;-70
2022/04/21 10:37:12;;;;;;;;;13.00;12.00;;;;;;;;5065883;28;45774;-71
2022/04/21 10:39:38;;;;;;;;;14.67;12.00;;;;;;;;5068894;28;48320;-72
2022/04/21 10:42:10;;;;;;;;;4.00;4.00;;;;;;;;5089098;27;45527;-68
2022/04/21 10:44:51;;;;;;;;;12.33;11.33;;;;;;;;5081992;27;45558;-71
2022/04/21 10:47:28;;;;;;;;;11.67;9.33;;;;;;;;5071198;28;45980;-77
2022/04/21 10:50:01;;;;;;;;;13.67;12.67;;;;;;;;5072384;28;47759;-71
2022/04/21 10:57:47;;;;;;;;;13.33;12.00;;;;;;;;5070795;28;45443;-79
2022/04/21 11:00:23;;;;;;;;;11.00;10.00;;;;;;;;5070057;27;45419;-77
2022/04/21 11:03:00;;;;;;;;;12.67;11.33;;;;;;;;5071823;28;45399;-76
2022/04/21 11:05:35;;;;;;;;;13.67;12.00;;;;;;;;5071580;27;45404;-76
2022/04/21 11:08:01;;;;;;;;;10.67;9.33;;;;;;;;5073902;28;45966;-77
2022/04/21 11:10:42;;;;;;;;;12.67;11.33;;;;;;;;5072265;28;45802;-74
2022/04/21 11:13:18;;;;;;;;;8.67;8.67;;;;;;;;5065207;28;45408;-77
2022/04/21 11:15:50;;;;;;;;;10.00;10.00;;;;;;;;5055955;28;45729;-70
2022/04/21 11:18:27;;;;;;;;;13.00;13.00;;;;;;;;5059401;28;46934;-70
2022/04/21 11:21:12;;;;;;;;;14.00;11.67;;;;;;;;5074884;27;45738;-77
2022/04/21 11:23:41;;;;;;;;;14.33;13.00;;;;;;;;5056701;28;45327;-76
2022/04/21 11:26:07;;;;;;;;;11.67;10.67;;;;;;;;5058587;28;45359;-76
2022/04/21 11:28:32;;;;;;;;;10.67;9.67;;;;;;;;5059368;28;45542;-77
2022/04/21 11:30:58;;;;;;;;;16.33;15.00;;;;;;;;5066945;28;46509;-77
2022/04/21 11:33:24;;;;;;;;;11.67;9.67;;;;;;;;5077614;27;45650;-77
2022/04/21 11:35:49;;;;;;;;;14.00;11.33;;;;;;;;5098017;27;45438;-78
2022/04/21 11:38:14;;;;;;;;;10.33;10.00;;;;;;;;5084603;27;45723;-76
2022/04/21 11:40:40;;;;;;;;;13.00;10.00;;;;;;;;5063077;27;45667;-77
2022/04/21 11:43:11;;;;;;;;;12.00;11.00;;;;;;;;5062798;28;45564;-71
2022/04/21 11:45:40;;;;;;;;;11.00;11.00;;;;;;;;5067109;28;45666;-75
2022/04/21 11:48:10;;;;;;;;;10.00;9.33;;;;;;;;5067500;27;45541;-77
2022/04/21 11:50:35;;;;;;;;;12.33;11.33;;;;;;;;5063129;28;45595;-77
2022/04/21 11:53:10;;;;;;;;;11.00;10.00;;;;;;;;5056327;28;45968;-76
2022/04/21 11:55:35;;;;;;;;;9.33;8.67;;;;;;;;5061166;28;45371;-71
2022/04/21 11:58:00;;;;;;;;;10.67;9.67;;;;;;;;5070020;27;47567;-75
2022/04/21 12:08:48;;;;;;;;;9.33;7.67;;;;;;;;5072692;28;45339;-76
2022/04/21 12:11:18;;;;;;;;;14.33;10.00;;;;;;;;5075369;28;45615;-75
2022/04/21 12:13:44;;;;;;;;;14.67;14.33;;;;;;;;5056144;28;45448;-76
2022/04/21 12:16:28;;;;;;;;;13.00;9.67;;;;;;;;5055558;28;45999;-68
2022/04/21 12:18:53;;;;;;;;;9.67;7.33;;;;;;;;5069991;28;47419;-76
2022/04/21 12:21:33;;;;;;;;;15.00;12.33;;;;;;;;5075743;27;46431;-75
2022/04/21 12:24:08;;;;;;;;;11.33;9.33;;;;;;;;5075251;28;45337;-70
2022/04/21 12:26:35;;;;;;;;;9.00;6.67;;;;;;;;5061249;27;45454;-76
2022/04/21 12:29:00;;;;;;;;;9.67;9.33;;;;;;;;5076477;27;45645;-76
2022/04/21 12:31:26;;;;;;;;;12.00;8.33;;;;;;;;5067239;27;46161;-76
2022/04/21 12:33:51;;;;;;;;;9.00;7.33;;;;;;;;5075546;28;45401;-77
2022/04/21 12:36:25;;;;;;;;;13.00;10.00;;;;;;;;5061229;28;45391;-77
2022/04/21 12:39:03;;;;;;;;;10.67;9.33;;;;;;;;5053196;28;45377;-70
2022/04/21 12:41:28;;;;;;;;;10.67;10.67;;;;;;;;5073336;27;45451;-78
2022/04/21 12:43:53;;;;;;;;;7.00;6.67;;;;;;;;5072888;28;45767;-76
2022/04/21 12:46:22;;;;;;;;;14.00;12.00;;;;;;;;5071823;28;45765;-76
2022/04/21 12:48:51;;;;;;;;;8.67;8.67;;;;;;;;5070823;27;45776;-76
2022/04/21 12:51:19;;;;;;;;;14.33;10.33;;;;;;;;5072576;27;45669;-76
2022/04/21 12:53:44;;;;;;;;;13.67;12.33;;;;;;;;5071529;28;45764;-76
2022/04/21 12:56:10;;;;;;;;;12.33;11.00;;;;;;;;5070537;28;45575;-69
2022/04/21 12:58:35;;;;;;;;;12.67;12.00;;;;;;;;5071097;28;46541;-71
2022/04/21 13:01:01;;;;;;;;;13.00;10.67;;;;;;;;5069027;27;45892;-68
2022/04/21 13:03:27;;;;;;;;;10.00;8.67;;;;;;;;5069800;28;45707;-70
2022/04/21 13:05:54;;;;;;;;;10.33;10.33;;;;;;;;5064452;28;45625;-70
2022/04/21 13:08:20;;;;;;;;;8.67;8.67;;;;;;;;5066222;27;45337;-70
2022/04/21 13:10:46;;;;;;;;;9.67;9.33;;;;;;;;5068909;28;46576;-69
2022/04/21 13:13:11;;;;;;;;;10.67;9.67;;;;;;;;5071505;28;45470;-70
2022/04/21 13:15:37;;;;;;;;;9.33;9.33;;;;;;;;5065906;28;45731;-75
2022/04/21 13:18:02;;;;;;;;;11.67;10.67;;;;;;;;5061947;28;45539;-75
2022/04/21 13:23:11;;;;;;;;;0.67;0.67;;;;;;;;5066904;28;45526;-70
2022/04/21 13:25:37;;;;;;;;;7.00;7.00;;;;;;;;5062134;28;45719;-70
2022/04/21 13:28:02;;;;;;;;;7.67;7.67;;;;;;;;5070087;27;45844;-71
2022/04/21 13:30:28;;;;;;;;;6.00;6.00;;;;;;;;5069069;28;45809;-70
2022/04/21 13:35:40;;;;;;;;;7.00;5.67;;;;;;;;5088275;27;45416;-70
2022/04/21 13:38:05;;;;;;;;;10.33;8.33;;;;;;;;5090378;27;46070;-69
2022/04/21 13:40:31;;;;;;;;;7.33;7.33;;;;;;;;5075695;27;45697;-76
2022/04/21 13:42:56;;;;;;;;;6.33;6.33;;;;;;;;5079509;27;45345;-76
2022/04/21 13:45:21;;;;;;;;;6.00;6.00;;;;;;;;5066520;28;46031;-75
2022/04/21 13:47:46;;;;;;;;;5.00;3.67;;;;;;;;5066647;28;45473;-71
2022/04/21 13:50:12;;;;;;;;;7.00;6.67;;;;;;;;5058555;28;45447;-70
2022/04/21 13:52:37;;;;;;;;;6.33;5.33;;;;;;;;5070748;28;45342;-71
2022/04/21 13:55:03;;;;;;;;;6.33;6.33;;;;;;;;5048632;28;45545;-77
2022/04/21 13:57:29;;;;;;;;;8.33;8.33;;;;;;;;5066358;28;45823;-69
2022/04/21 13:59:54;;;;;;;;;7.33;6.00;;;;;;;;5070561;28;45750;-69
2022/04/21 14:02:19;;;;;;;;;9.00;5.67;;;;;;;;5070077;28;45365;-75
2022/04/21 14:04:44;;;;;;;;;5.33;5.33;;;;;;;;5058242;28;45396;-76
2022/04/21 14:07:10;;;;;;;;;7.33;4.00;;;;;;;;5067351;28;45632;-76
2022/04/21 14:09:35;;;;;;;;;5.00;4.00;;;;;;;;5059738;28;45579;-76
2022/04/21 14:12:00;;;;;;;;;3.67;3.67;;;;;;;;5071542;27;45724;-76
2022/04/21 14:14:28;;;;;;;;;5.33;4.33;;;;;;;;5063147;28;45728;-78
2022/04/21 14:16:53;;;;;;;;;4.67;4.67;;;;;;;;5063379;27;45432;-77
2022/04/21 14:19:18;;;;;;;;;6.00;4.67;;;;;;;;5051500;28;45922;-70
2022/04/21 14:21:44;;;;;;;;;8.33;5.33;;;;;;;;5059437;28;45512;-68
2022/04/21 14:24:09;;;;;;;;;3.33;3.00;;;;;;;;5049576;28;45715;-71
2022/04/21 14:26:35;;;;;;;;;5.00;4.00;;;;;;;;5049328;28;45596;-69
2022/04/21 14:29:01;;;;;;;;;6.00;4.33;;;;;;;;5050952;28;46435;-70
2022/04/21 14:31:26;;;;;;;;;5.00;5.00;;;;;;;;5050824;28;45813;-69
2022/04/21 14:33:51;;;;;;;;;4.67;4.67;;;;;;;;5056406;27;45710;-70
2022/04/21 14:36:17;;;;;;;;;3.33;3.33;;;;;;;;5073422;27;45988;-69
2022/04/21 14:44:11;;;;;;;;;2.00;2.00;;;;;;;;5067408;27;45893;-76
2022/04/21 14:46:37;;;;;;;;;5.33;4.67;;;;;;;;5058349;27;45639;-69
2022/04/21 14:49:08;;;;;;;;;3.33;2.33;;;;;;;;5049911;28;46644;-70
2022/04/21 14:51:33;;;;;;;;;6.00;3.33;;;;;;;;5053835;28;45773;-70
2022/04/21 14:53:58;;;;;;;;;4.33;3.33;;;;;;;;5055243;28;45551;-70
2022/04/21 14:56:24;;;;;;;;;4.00;4.00;;;;;;;;5067737;27;45512;-70
2022/04/21 14:58:50;;;;;;;;;4.00;4.00;;;;;;;;5074499;28;48067;-76
2022/04/21 15:01:16;;;;;;;;;4.00;4.00;;;;;;;;5068363;27;45989;-71
2022/04/21 15:03:41;;;;;;;;;4.00;4.00;;;;;;;;5073058;28;45782;-71
2022/04/21 15:06:08;;;;;;;;;4.00;4.00;;;;;;;;5058377;28;45912;-69
2022/04/21 15:08:34;;;;;;;;;8.67;5.00;;;;;;;;5071095;27;45745;-71
2022/04/21 15:10:59;;;;;;;;;3.00;3.00;;;;;;;;5063134;27;46743;-68
2022/04/21 15:13:25;;;;;;;;;6.00;5.00;;;;;;;;5061182;27;45518;-71
2022/04/21 15:15:50;;;;;;;;;4.00;4.00;;;;;;;;5070517;27;46663;-69
2022/04/21 15:18:15;;;;;;;;;4.00;3.00;;;;;;;;5065653;27;45956;-69
2022/04/21 15:20:41;;;;;;;;;4.67;4.00;;;;;;;;5069071;27;45941;-71
2022/04/21 15:23:11;;;;;;;;;3.00;3.00;;;;;;;;5060967;27;45534;-75
2022/04/21 15:25:39;;;;;;;;;3.00;3.00;;;;;;;;5068042;27;45567;-76
2022/04/21 15:28:05;;;;;;;;;3.00;3.00;;;;;;;;5087731;27;46344;-69
2022/04/21 15:30:36;;;;;;;;;3.00;3.00;;;;;;;;5061302;27;45486;-76
2022/04/21 15:33:01;;;;;;;;;3.00;3.00;;;;;;;;5071608;27;45590;-76
2022/04/21 15:35:26;;;;;;;;;2.67;2.33;;;;;;;;5076109;27;45464;-76
2022/04/21 15:37:51;;;;;;;;;5.33;4.00;;;;;;;;5072628;27;47444;-75